• 1385014 10153382300060425 128216538 n
  • 3
  • 6
  • 7
  • 1
  • 10
  • 未命名
  • 121
  • 55
  • 2
  • cargo

Welcome aboard

Current Weather

[source: ADDS]
METAR
RCTP 281000Z 02008KT 350V050 9999 FEW020 30/24 Q1011 NOSIG RMK A2988 =
TAF
TAF RCTP 280500Z 2806/2912 33005KT 9999 FEW015 TEMPO 2918/2924 18005KT =